createdAt,value
2018-04-30T00:01:49.581Z,18.43
2018-04-30T00:04:17.900Z,19.73
2018-04-30T00:06:46.245Z,20.20
2018-04-30T00:09:14.580Z,18.57
2018-04-30T00:11:42.924Z,17.77
2018-04-30T00:14:11.243Z,18.03
2018-04-30T00:16:39.574Z,18.27
2018-04-30T00:19:07.896Z,19.43
2018-04-30T00:21:36.238Z,16.87
2018-04-30T00:24:04.557Z,19.90
2018-04-30T00:26:32.910Z,18.90
2018-04-30T00:29:01.254Z,18.87
2018-04-30T00:31:29.609Z,18.67
2018-04-30T00:33:57.950Z,17.37
2018-04-30T00:36:26.291Z,19.00
2018-04-30T00:38:54.663Z,17.97
2018-04-30T00:41:22.989Z,18.07
2018-04-30T00:43:51.336Z,17.80
2018-04-30T00:46:19.691Z,19.03
2018-04-30T00:48:48.073Z,16.07
2018-04-30T00:51:16.385Z,18.47
2018-04-30T00:53:44.717Z,16.73
2018-04-30T00:56:13.087Z,16.30
2018-04-30T00:58:41.453Z,16.63
2018-04-30T01:01:09.766Z,16.83
2018-04-30T01:03:38.092Z,17.43
2018-04-30T01:06:06.426Z,18.63
2018-04-30T01:08:34.756Z,16.63
2018-04-30T01:11:03.102Z,16.87
2018-04-30T01:13:31.436Z,17.50
2018-04-30T01:15:59.797Z,16.77
2018-04-30T01:18:28.121Z,16.60
2018-04-30T01:20:56.446Z,15.80
2018-04-30T01:23:24.812Z,15.87
2018-04-30T01:25:53.126Z,16.30
2018-04-30T01:28:21.445Z,16.70
2018-04-30T01:30:49.809Z,16.83
2018-04-30T01:33:18.127Z,15.30
2018-04-30T01:35:46.455Z,14.77
2018-04-30T01:38:14.779Z,15.17
2018-04-30T01:40:43.149Z,15.13
2018-04-30T01:43:12.255Z,15.43
2018-04-30T01:45:40.579Z,15.50
2018-04-30T01:48:08.945Z,16.07
2018-04-30T01:50:37.272Z,16.70
2018-04-30T01:53:05.592Z,16.33
2018-04-30T01:55:33.927Z,16.20
2018-04-30T01:58:02.263Z,15.07
2018-04-30T02:00:30.627Z,14.73
2018-04-30T02:02:58.950Z,13.73
2018-04-30T02:05:27.304Z,13.37
2018-04-30T02:07:55.626Z,12.77
2018-04-30T02:10:23.948Z,12.23
2018-04-30T02:12:52.296Z,12.83
2018-04-30T02:15:20.610Z,11.37
2018-04-30T02:17:48.947Z,12.60
2018-04-30T02:20:17.288Z,13.43
2018-04-30T02:22:45.623Z,11.20
2018-04-30T02:25:13.959Z,13.23
2018-04-30T02:27:42.309Z,12.07
2018-04-30T02:30:10.624Z,12.33
2018-04-30T02:32:38.946Z,10.53
2018-04-30T02:35:07.281Z,10.07
2018-04-30T02:37:35.616Z,11.10
2018-04-30T02:40:03.985Z,11.53
2018-04-30T02:42:32.329Z,10.27
2018-04-30T02:45:00.654Z,9.30
2018-04-30T02:47:28.978Z,9.90
2018-04-30T02:49:57.346Z,9.17
2018-04-30T02:52:25.709Z,9.27
2018-04-30T02:54:54.021Z,9.80
2018-04-30T02:57:22.363Z,8.17
2018-04-30T02:59:50.675Z,8.17
2018-04-30T03:02:18.988Z,8.73
2018-04-30T03:04:47.322Z,9.83
2018-04-30T03:07:15.639Z,8.23
2018-04-30T03:09:44.037Z,6.77
2018-04-30T03:12:12.296Z,8.03
2018-04-30T03:14:40.620Z,8.30
2018-04-30T03:17:08.932Z,7.73
2018-04-30T03:19:37.256Z,8.33
2018-04-30T03:22:05.576Z,8.10
2018-04-30T03:24:33.901Z,8.37
2018-04-30T03:27:02.216Z,8.27
2018-04-30T03:29:30.546Z,8.77
2018-04-30T03:31:58.864Z,7.80
2018-04-30T03:34:27.259Z,8.17
2018-04-30T03:36:55.567Z,7.83
2018-04-30T03:39:23.916Z,6.87
2018-04-30T03:41:52.263Z,6.63
2018-04-30T03:44:20.566Z,8.90
2018-04-30T03:46:48.919Z,7.33
2018-04-30T03:49:17.243Z,6.80
2018-04-30T03:51:45.570Z,7.67
2018-04-30T03:54:13.908Z,7.97
2018-04-30T03:56:42.243Z,8.30
2018-04-30T03:59:10.542Z,8.57
2018-04-30T04:01:50.770Z,7.67
2018-04-30T04:04:30.972Z,7.77
2018-04-30T04:06:59.303Z,8.07
2018-04-30T04:09:27.610Z,8.77
2018-04-30T04:11:55.948Z,9.30
2018-04-30T04:14:24.259Z,8.63
2018-04-30T04:16:52.587Z,9.90
2018-04-30T04:19:20.888Z,8.07
2018-04-30T04:21:49.227Z,8.63
2018-04-30T04:24:17.581Z,8.97
2018-04-30T04:26:45.891Z,9.57
2018-04-30T04:29:14.199Z,8.30
2018-04-30T04:31:42.513Z,9.57
2018-04-30T04:34:10.856Z,7.50
2018-04-30T04:36:39.184Z,8.60
2018-04-30T04:39:07.497Z,7.90
2018-04-30T04:41:36.263Z,9.10
2018-04-30T04:44:04.540Z,6.93
2018-04-30T04:46:32.868Z,7.83
2018-04-30T04:49:01.201Z,8.57
2018-04-30T04:51:29.521Z,8.07
2018-04-30T04:53:57.868Z,7.10
2018-04-30T04:56:26.195Z,7.93
2018-04-30T04:58:54.590Z,8.83
2018-04-30T05:01:22.924Z,8.07
2018-04-30T05:03:51.340Z,7.50
2018-04-30T05:06:19.791Z,6.67
2018-04-30T05:08:48.136Z,8.07
2018-04-30T05:11:16.454Z,9.17
2018-04-30T05:13:44.773Z,7.47
2018-04-30T05:16:13.131Z,8.70
2018-04-30T05:18:41.477Z,7.47
2018-04-30T05:21:09.789Z,6.87
2018-04-30T05:23:38.132Z,7.67
2018-04-30T05:26:06.450Z,8.17
2018-04-30T05:28:34.773Z,7.87
2018-04-30T05:31:03.123Z,7.30
2018-04-30T05:33:31.522Z,8.53
2018-04-30T05:35:59.886Z,7.13
2018-04-30T05:38:28.200Z,7.87
2018-04-30T05:40:56.525Z,7.57
2018-04-30T05:43:24.827Z,7.67
2018-04-30T05:45:53.177Z,10.00
2018-04-30T05:48:21.487Z,7.50
2018-04-30T05:50:49.813Z,8.37
2018-04-30T05:53:18.136Z,7.87
2018-04-30T05:55:46.446Z,7.97
2018-04-30T05:58:14.770Z,7.30
2018-04-30T06:00:43.113Z,7.87
2018-04-30T06:03:11.435Z,7.10
2018-04-30T06:05:39.800Z,7.40
2018-04-30T06:08:08.115Z,6.43
2018-04-30T06:10:36.443Z,8.00
2018-04-30T06:13:04.759Z,6.70
2018-04-30T06:15:33.149Z,7.73
2018-04-30T06:18:01.473Z,6.77
2018-04-30T06:20:29.873Z,8.07
2018-04-30T06:22:59.100Z,7.00
2018-04-30T06:25:27.444Z,6.20
2018-04-30T06:27:55.785Z,6.93
2018-04-30T06:30:24.172Z,6.80
2018-04-30T06:32:52.535Z,7.03
2018-04-30T06:35:20.855Z,6.87
2018-04-30T06:37:49.186Z,7.27
2018-04-30T06:40:17.505Z,7.20
2018-04-30T06:42:45.901Z,5.80
2018-04-30T06:45:14.799Z,6.93
2018-04-30T06:48:02.058Z,5.97
2018-04-30T06:50:37.789Z,6.63
2018-04-30T06:53:06.116Z,6.73
2018-04-30T06:55:34.476Z,8.30
2018-04-30T06:58:02.797Z,7.60
2018-04-30T07:00:37.612Z,7.20
2018-04-30T07:03:05.940Z,6.30
2018-04-30T07:05:34.269Z,6.83
2018-04-30T07:08:02.596Z,6.80
2018-04-30T07:10:30.903Z,6.70
2018-04-30T07:12:59.238Z,5.77
2018-04-30T07:15:27.556Z,7.40
2018-04-30T07:17:55.898Z,7.47
2018-04-30T07:20:24.213Z,7.23
2018-04-30T07:22:52.523Z,8.50
2018-04-30T07:25:20.846Z,7.17
2018-04-30T07:27:49.240Z,7.23
2018-04-30T07:30:17.515Z,7.33
2018-04-30T07:32:45.917Z,5.83
2018-04-30T07:35:14.252Z,7.60
2018-04-30T07:37:42.574Z,6.47
2018-04-30T07:40:10.891Z,6.35
2018-04-30T07:42:39.284Z,7.00
2018-04-30T07:45:07.586Z,5.80
2018-04-30T07:47:35.894Z,6.60
2018-04-30T07:50:04.243Z,6.60
2018-04-30T07:52:32.783Z,6.68
2018-04-30T07:55:01.105Z,7.10
2018-04-30T07:57:29.530Z,7.90
2018-04-30T07:59:57.858Z,6.68
2018-04-30T08:02:26.179Z,7.18
2018-04-30T08:04:54.549Z,6.85
2018-04-30T08:07:22.865Z,6.90
2018-04-30T08:09:51.207Z,6.80
2018-04-30T08:12:19.535Z,6.43
2018-04-30T08:14:47.895Z,7.20
2018-04-30T08:17:16.197Z,7.17
2018-04-30T08:19:44.515Z,6.40
2018-04-30T08:22:12.831Z,6.37
2018-04-30T08:24:41.322Z,5.53
2018-04-30T08:27:09.869Z,5.10
2018-04-30T08:29:38.317Z,5.73
2018-04-30T08:32:06.604Z,5.10
2018-04-30T08:34:34.973Z,5.43
2018-04-30T08:37:03.288Z,4.90
2018-04-30T08:39:31.636Z,5.00
2018-04-30T08:41:59.979Z,5.40
2018-04-30T08:44:28.339Z,5.60
2018-04-30T08:46:56.729Z,5.10
2018-04-30T08:49:25.048Z,4.43
2018-04-30T08:51:53.355Z,4.60
2018-04-30T08:54:27.389Z,3.80
2018-04-30T08:56:55.765Z,3.83
2018-04-30T08:59:24.073Z,3.03
2018-04-30T09:01:52.406Z,4.93
2018-04-30T09:04:20.711Z,2.87
2018-04-30T09:06:49.042Z,2.83
2018-04-30T09:09:17.343Z,2.30
2018-04-30T09:11:45.668Z,1.90
2018-04-30T09:14:13.985Z,2.07
2018-04-30T09:16:42.333Z,3.20
2018-04-30T09:19:10.648Z,2.00
2018-04-30T09:21:38.973Z,2.50
2018-04-30T09:24:07.286Z,2.07
2018-04-30T09:26:35.609Z,2.67
2018-04-30T09:29:04.013Z,1.67
2018-04-30T09:31:32.248Z,1.67
2018-04-30T09:34:00.613Z,2.00
2018-04-30T09:36:28.968Z,2.73
2018-04-30T09:38:57.281Z,2.00
2018-04-30T09:41:25.682Z,2.00
2018-04-30T09:43:53.999Z,1.07
2018-04-30T09:46:22.298Z,1.60
2018-04-30T09:48:50.616Z,1.20
2018-04-30T09:51:18.917Z,1.63
2018-04-30T09:53:47.368Z,1.80
2018-04-30T09:56:15.735Z,1.00
2018-04-30T09:58:44.055Z,1.03
2018-04-30T10:01:12.355Z,0.97
2018-04-30T10:03:40.715Z,1.10
2018-04-30T10:06:09.050Z,1.13
2018-04-30T10:08:37.397Z,1.27
2018-04-30T10:11:05.702Z,0.87
2018-04-30T10:13:34.045Z,0.93
2018-04-30T10:16:02.396Z,1.30
2018-04-30T10:18:30.686Z,1.57
2018-04-30T10:20:59.015Z,1.10
2018-04-30T10:23:27.382Z,0.77
2018-04-30T10:25:56.017Z,0.87
2018-04-30T10:28:24.352Z,1.53
2018-04-30T10:30:52.659Z,0.47
2018-04-30T10:33:20.983Z,1.13
2018-04-30T10:35:54.216Z,0.90
2018-04-30T10:38:24.686Z,0.90
2018-04-30T10:40:53.035Z,0.90
2018-04-30T10:43:21.334Z,0.70
2018-04-30T10:45:50.894Z,1.10
2018-04-30T10:48:19.147Z,0.90
2018-04-30T10:50:47.518Z,0.83
2018-04-30T10:53:15.828Z,0.90
2018-04-30T10:55:44.245Z,1.20
2018-04-30T10:58:12.536Z,1.00
2018-04-30T11:00:40.979Z,1.13
2018-04-30T11:03:09.304Z,2.10
2018-04-30T11:05:37.783Z,1.33
2018-04-30T11:08:06.121Z,1.10
2018-04-30T11:10:34.503Z,1.03
2018-04-30T11:13:02.825Z,1.50
2018-04-30T11:15:31.164Z,1.13
2018-04-30T11:17:59.645Z,0.93
2018-04-30T11:20:27.955Z,0.90
2018-04-30T11:22:56.281Z,0.83
2018-04-30T11:25:24.606Z,1.00
2018-04-30T11:27:52.953Z,0.80
2018-04-30T11:30:21.275Z,0.70
2018-04-30T11:32:49.584Z,0.83
2018-04-30T11:35:17.902Z,1.10
2018-04-30T11:37:46.226Z,0.70
2018-04-30T11:40:14.537Z,0.90
2018-04-30T11:42:42.863Z,0.97
2018-04-30T11:45:11.171Z,1.00
2018-04-30T11:47:39.514Z,1.20
2018-04-30T11:50:07.820Z,0.80
2018-04-30T11:52:36.189Z,1.10
2018-04-30T11:55:04.536Z,1.00
2018-04-30T11:57:32.888Z,1.20
2018-04-30T12:00:01.245Z,1.00
2018-04-30T12:02:29.629Z,1.60
2018-04-30T12:04:57.961Z,0.80
2018-04-30T12:07:26.301Z,0.87
2018-04-30T12:09:54.620Z,1.00
2018-04-30T12:12:22.931Z,1.27
2018-04-30T12:14:51.265Z,0.97
2018-04-30T12:17:19.601Z,0.77
2018-04-30T12:19:47.918Z,1.20
2018-04-30T12:22:16.295Z,1.00
2018-04-30T12:24:44.542Z,1.27
2018-04-30T12:27:12.863Z,0.90
2018-04-30T12:29:41.760Z,1.10
2018-04-30T12:32:10.023Z,1.40
2018-04-30T12:34:38.414Z,1.37
2018-04-30T12:37:06.850Z,0.87
2018-04-30T12:39:35.241Z,0.80
2018-04-30T12:42:08.627Z,1.20
2018-04-30T12:44:38.104Z,1.27
2018-04-30T12:47:06.436Z,1.30
2018-04-30T12:49:34.811Z,0.90
2018-04-30T12:52:03.100Z,1.07
2018-04-30T12:54:31.402Z,1.33
2018-04-30T12:56:59.735Z,0.80
2018-04-30T12:59:28.049Z,1.60
2018-04-30T13:01:56.382Z,1.20
2018-04-30T13:04:24.711Z,1.50
2018-04-30T13:06:53.106Z,1.47
2018-04-30T13:09:21.451Z,2.27
2018-04-30T13:11:49.782Z,1.17
2018-04-30T13:14:18.129Z,0.90
2018-04-30T13:16:46.467Z,0.80
2018-04-30T13:19:14.763Z,0.90
2018-04-30T13:21:43.082Z,1.47
2018-04-30T13:24:11.408Z,1.10
2018-04-30T13:26:39.753Z,1.97
2018-04-30T13:29:08.057Z,1.63
2018-04-30T13:31:36.360Z,0.93
2018-04-30T13:34:04.679Z,1.10
2018-04-30T13:36:32.999Z,1.10
2018-04-30T13:39:01.314Z,0.73
2018-04-30T13:41:29.626Z,0.90
2018-04-30T13:43:57.978Z,0.70
2018-04-30T13:46:26.275Z,0.83
2018-04-30T13:48:54.595Z,0.80
2018-04-30T13:51:22.920Z,0.90
2018-04-30T13:53:51.289Z,0.97
2018-04-30T13:56:19.621Z,1.00
2018-04-30T13:58:47.935Z,0.60
2018-04-30T14:01:16.242Z,0.90
2018-04-30T14:03:44.645Z,1.87
2018-04-30T14:06:12.979Z,0.80
2018-04-30T14:08:41.309Z,0.70
2018-04-30T14:11:09.686Z,1.07
2018-04-30T14:13:38.037Z,1.10
2018-04-30T14:16:06.437Z,0.90
2018-04-30T14:18:34.700Z,1.00
2018-04-30T14:21:02.994Z,1.10
2018-04-30T14:23:31.300Z,1.03
2018-04-30T14:25:59.615Z,1.80
2018-04-30T14:28:27.941Z,1.53
2018-04-30T14:30:56.277Z,1.43
2018-04-30T14:33:24.591Z,1.30
2018-04-30T14:35:52.935Z,0.90
2018-04-30T14:38:21.299Z,1.57
2018-04-30T14:40:49.589Z,1.10
2018-04-30T14:43:17.900Z,1.00
2018-04-30T14:45:46.215Z,1.60
2018-04-30T14:48:14.522Z,1.20
2018-04-30T14:50:43.064Z,2.63
2018-04-30T14:53:11.359Z,1.27
2018-04-30T14:55:39.675Z,1.10
2018-04-30T14:58:08.064Z,1.50
2018-04-30T15:00:36.326Z,1.30
2018-04-30T15:03:04.666Z,1.73
2018-04-30T15:05:32.976Z,3.50
2018-04-30T15:08:01.312Z,2.00
2018-04-30T15:10:29.609Z,1.93
2018-04-30T15:12:57.935Z,1.20
2018-04-30T15:15:26.239Z,1.40
2018-04-30T15:17:54.561Z,1.30
2018-04-30T15:20:22.858Z,1.23
2018-04-30T15:22:51.185Z,1.60
2018-04-30T15:25:19.515Z,0.97
2018-04-30T15:27:47.827Z,1.30
2018-04-30T15:30:16.152Z,1.00
2018-04-30T15:32:44.468Z,0.70
2018-04-30T15:35:12.777Z,1.93
2018-04-30T15:37:41.094Z,1.30
2018-04-30T15:40:09.410Z,2.10
2018-04-30T15:42:37.735Z,1.27
2018-04-30T15:45:06.044Z,0.97
2018-04-30T15:47:34.379Z,1.40
2018-04-30T15:50:02.715Z,1.30
2018-04-30T15:52:31.039Z,1.23
2018-04-30T15:54:59.370Z,1.10
2018-04-30T15:57:27.695Z,1.13
2018-04-30T15:59:56.029Z,1.80
2018-04-30T16:02:24.340Z,0.90
2018-04-30T16:04:52.657Z,1.33
2018-04-30T16:07:20.963Z,1.07
2018-04-30T16:09:49.291Z,1.43
2018-04-30T16:12:17.610Z,1.40
2018-04-30T16:14:45.964Z,1.20
2018-04-30T16:17:14.322Z,1.87
2018-04-30T16:19:42.636Z,1.03
2018-04-30T16:22:10.960Z,1.50
2018-04-30T16:24:39.343Z,1.60
2018-04-30T16:27:07.652Z,1.23
2018-04-30T16:29:35.962Z,1.50
2018-04-30T16:32:04.283Z,1.43
2018-04-30T16:34:32.588Z,1.40
2018-04-30T16:37:00.906Z,7.03
2018-04-30T16:39:29.294Z,2.87
2018-04-30T16:41:57.560Z,11.60
2018-04-30T16:44:25.932Z,3.70
2018-04-30T16:46:54.258Z,2.57
2018-04-30T16:49:22.588Z,2.20
2018-04-30T16:51:55.711Z,2.37
2018-04-30T16:54:24.028Z,3.23
2018-04-30T16:56:52.353Z,2.10
2018-04-30T16:59:20.648Z,3.03
2018-04-30T17:01:48.979Z,4.97
2018-04-30T17:04:18.990Z,3.30
2018-04-30T17:06:47.299Z,3.93
2018-04-30T17:09:15.686Z,2.93
2018-04-30T17:11:43.995Z,5.57
2018-04-30T17:14:12.621Z,16.87
2018-04-30T17:16:40.985Z,16.80
2018-04-30T17:19:09.311Z,11.70
2018-04-30T17:21:37.661Z,15.60
2018-04-30T17:24:06.030Z,9.50
2018-04-30T17:26:34.452Z,10.43
2018-04-30T17:29:02.780Z,10.27
2018-04-30T17:31:31.184Z,7.80
2018-04-30T17:33:59.510Z,4.97
2018-04-30T17:36:27.835Z,7.00
2018-04-30T17:38:56.673Z,7.23
2018-04-30T17:41:25.058Z,10.87
2018-04-30T17:43:53.396Z,5.93
2018-04-30T17:46:21.742Z,4.57
2018-04-30T17:48:50.070Z,7.33
2018-04-30T17:51:18.399Z,5.60
2018-04-30T17:53:47.034Z,6.00
2018-04-30T17:56:15.443Z,4.57
2018-04-30T17:58:43.810Z,6.33
2018-04-30T18:01:12.209Z,9.63
2018-04-30T18:03:40.584Z,7.30
2018-04-30T18:06:08.971Z,23.80
2018-04-30T18:08:37.322Z,15.40
2018-04-30T18:11:05.647Z,12.53
2018-04-30T18:13:34.047Z,9.50
2018-04-30T18:16:02.373Z,9.90
2018-04-30T18:18:30.723Z,6.63
2018-04-30T18:20:59.061Z,11.13
2018-04-30T18:23:27.399Z,9.33
2018-04-30T18:25:55.948Z,5.40
2018-04-30T18:28:24.292Z,6.87
2018-04-30T18:30:52.613Z,3.57
2018-04-30T18:33:20.972Z,7.70
2018-04-30T18:35:49.259Z,6.70
2018-04-30T18:38:17.667Z,8.67
2018-04-30T18:40:46.014Z,10.60
2018-04-30T18:43:14.351Z,7.90
2018-04-30T18:45:42.744Z,9.87
2018-04-30T18:48:11.139Z,13.20
2018-04-30T18:50:39.545Z,20.97
2018-04-30T18:53:07.877Z,21.13
2018-04-30T18:55:36.302Z,11.13
2018-04-30T18:58:04.685Z,10.07
2018-04-30T19:00:33.091Z,11.97
2018-04-30T19:03:01.798Z,8.73
2018-04-30T19:05:30.202Z,6.63
2018-04-30T19:07:58.571Z,5.33
2018-04-30T19:10:26.849Z,8.07
2018-04-30T19:12:55.176Z,18.00
2018-04-30T19:15:23.519Z,16.27
2018-04-30T19:17:51.931Z,14.80
2018-04-30T19:20:20.273Z,13.70
2018-04-30T19:22:48.604Z,35.37
2018-04-30T19:25:16.925Z,37.77
2018-04-30T19:27:45.276Z,16.60
2018-04-30T19:30:13.696Z,16.63
2018-04-30T19:32:42.186Z,13.93
2018-04-30T19:35:10.522Z,10.67
2018-04-30T19:37:38.854Z,8.73
2018-04-30T19:40:07.293Z,9.80
2018-04-30T19:42:35.567Z,9.87
2018-04-30T19:45:03.891Z,10.23
2018-04-30T19:47:32.225Z,11.93
2018-04-30T19:50:00.556Z,9.63
2018-04-30T19:52:29.003Z,10.03
2018-04-30T19:54:57.262Z,12.80
2018-04-30T19:57:25.590Z,9.97
2018-04-30T19:59:57.050Z,15.37
2018-04-30T20:02:25.581Z,15.30
2018-04-30T20:04:53.921Z,40.80
2018-04-30T20:07:22.306Z,21.03
2018-04-30T20:09:50.652Z,32.47
2018-04-30T20:12:18.961Z,28.33
2018-04-30T20:14:47.321Z,36.37
2018-04-30T20:17:15.633Z,25.90
2018-04-30T20:19:44.071Z,22.93
2018-04-30T20:22:12.470Z,22.07
2018-04-30T20:24:40.813Z,19.83
2018-04-30T20:27:09.152Z,24.53
2018-04-30T20:29:37.471Z,22.37
2018-04-30T20:32:05.795Z,17.47
2018-04-30T20:34:34.149Z,17.77
2018-04-30T20:37:02.464Z,20.97
2018-04-30T20:39:30.809Z,28.77
2018-04-30T20:41:59.123Z,26.03
2018-04-30T20:44:27.535Z,24.77
2018-04-30T20:46:55.992Z,21.87
2018-04-30T20:49:24.352Z,24.90
2018-04-30T20:51:52.677Z,23.73
2018-04-30T20:54:21.024Z,20.87
2018-04-30T20:56:49.396Z,27.47
2018-04-30T20:59:17.733Z,23.03
2018-04-30T21:01:46.098Z,19.00
2018-04-30T21:04:15.019Z,18.47
2018-04-30T21:06:43.372Z,17.53
2018-04-30T21:09:13.627Z,17.83
2018-04-30T21:11:41.970Z,15.77
2018-04-30T21:14:10.300Z,16.97
2018-04-30T21:16:38.634Z,19.27
2018-04-30T21:19:06.946Z,16.67
2018-04-30T21:21:35.287Z,18.03
2018-04-30T21:24:03.615Z,18.13
2018-04-30T21:26:31.970Z,18.13
2018-04-30T21:29:00.360Z,18.00
2018-04-30T21:31:28.692Z,18.57
2018-04-30T21:33:57.026Z,19.70
2018-04-30T21:36:25.364Z,20.40
2018-04-30T21:38:53.728Z,18.37
2018-04-30T21:41:22.072Z,19.77
2018-04-30T21:43:50.397Z,20.00
2018-04-30T21:46:18.727Z,18.83
2018-04-30T21:48:47.044Z,19.07
2018-04-30T21:51:15.435Z,20.80
2018-04-30T21:53:43.780Z,19.33
2018-04-30T21:56:12.154Z,18.00
2018-04-30T21:58:40.489Z,21.87
2018-04-30T22:01:08.818Z,18.90
2018-04-30T22:03:37.159Z,20.20
2018-04-30T22:06:05.524Z,23.00
2018-04-30T22:08:33.911Z,21.67
2018-04-30T22:11:02.243Z,20.27
2018-04-30T22:13:30.595Z,19.70
2018-04-30T22:15:58.989Z,22.50
2018-04-30T22:18:27.328Z,20.17
2018-04-30T22:20:55.667Z,20.23
2018-04-30T22:23:24.071Z,21.40
2018-04-30T22:25:52.457Z,21.40
2018-04-30T22:28:20.829Z,22.30
2018-04-30T22:30:49.243Z,22.83
2018-04-30T22:33:17.565Z,23.50
2018-04-30T22:35:45.896Z,23.57
2018-04-30T22:38:14.257Z,22.43
2018-04-30T22:40:42.756Z,22.57
2018-04-30T22:43:11.079Z,21.50
2018-04-30T22:45:39.485Z,20.47
2018-04-30T22:48:07.881Z,20.23
2018-04-30T22:50:36.259Z,18.20
2018-04-30T22:53:04.667Z,14.83
2018-04-30T22:55:32.995Z,16.53
2018-04-30T22:58:01.361Z,17.37
2018-04-30T23:00:29.691Z,15.17
2018-04-30T23:02:58.024Z,15.87
2018-04-30T23:05:26.450Z,16.37
2018-04-30T23:07:54.770Z,17.00
2018-04-30T23:10:23.091Z,15.43
2018-04-30T23:12:51.466Z,15.10
2018-04-30T23:15:19.875Z,13.70
2018-04-30T23:17:48.207Z,15.23
2018-04-30T23:20:16.555Z,14.67
2018-04-30T23:22:44.872Z,14.50
2018-04-30T23:25:13.200Z,13.93
2018-04-30T23:27:41.521Z,13.77
2018-04-30T23:30:09.859Z,13.80
2018-04-30T23:32:38.189Z,12.97
2018-04-30T23:35:06.920Z,13.20
2018-04-30T23:37:35.287Z,13.50
2018-04-30T23:40:03.637Z,12.97
2018-04-30T23:42:32.061Z,13.77
2018-04-30T23:45:00.410Z,13.07
2018-04-30T23:47:28.748Z,14.10
2018-04-30T23:49:57.148Z,13.23
2018-04-30T23:52:25.553Z,13.67
2018-04-30T23:54:53.883Z,13.27
2018-04-30T23:57:22.223Z,13.80
2018-04-30T23:59:50.529Z,14.43
